.
WxDataArchive / Data Records for 2013-08-10
2013-08-09 August 2013 2013-08-11

Data Records for Saturday, 10 August 2013

Time	Temp	Chill	HIndex	Humid	Dewpt	 Wind 	HiWind	WindDir	Rain 	Barom 
-----	----	-----	------	-----	-----	------	------	-------	-----	----- 
00:00	69.8	69.8	69.8	79	63.0	0	0	---	0.00	30.002 
00:05	69.6	69.6	69.6	80	63.1	0	0	---	0.00	30.002 
00:10	69.6	69.6	69.6	80	63.1	0	0	---	0.00	30.002 
00:15	69.4	69.4	69.4	81	63.3	0	0	---	0.00	30.007 
00:20	69.3	69.3	69.3	81	63.2	0	0	---	0.00	30.007 
00:25	69.1	69.1	69.1	81	63.0	0	0	---	0.00	30.007 
00:30	68.9	68.9	68.9	81	62.8	0	0	---	0.00	30.011 
00:35	68.8	68.8	68.8	82	63.1	0	0	---	0.00	30.011 
00:40	68.6	68.6	68.6	82	62.9	0	0	---	0.00	30.011 
00:45	68.4	68.4	68.4	82	62.7	0	0	---	0.00	30.011 
00:50	68.4	68.4	68.4	83	63.0	0	0	---	0.00	30.011 
00:55	68.4	68.4	68.4	83	63.0	0	0	---	0.00	30.011 
01:00	68.3	68.3	68.3	83	62.9	0	0	---	0.00	30.018 
01:05	68.3	68.3	68.3	84	63.3	0	0	---	0.00	30.018 
01:10	68.1	68.1	68.1	84	63.1	0	0	---	0.00	30.018 
01:15	68.1	68.1	68.1	84	63.1	0	0	---	0.00	30.022 
01:20	67.9	67.9	67.9	84	62.9	0	0	---	0.00	30.022 
01:25	67.8	67.8	67.8	84	62.8	0	0	---	0.00	30.022 
01:30	67.6	67.6	67.6	85	62.9	0	0	---	0.00	30.026 
01:35	67.6	67.6	67.6	85	62.9	0	0	---	0.00	30.026 
01:40	67.4	67.4	67.4	85	62.7	0	0	---	0.00	30.026 
01:45	67.3	67.3	67.3	85	62.6	0	0	---	0.00	30.025 
01:50	67.1	67.1	67.1	86	62.8	0	0	---	0.00	30.025 
01:55	67.1	67.1	67.1	86	62.8	0	0	---	0.00	30.025 
02:00	66.9	66.9	66.9	86	62.6	0	0	---	0.00	30.026 
02:05	66.9	66.9	66.9	87	62.9	0	0	---	0.00	30.026 
02:10	66.8	66.8	66.8	87	62.8	0	0	---	0.00	30.026 
02:15	66.8	66.8	66.8	87	62.8	0	0	---	0.00	30.022 
02:20	66.8	66.8	66.8	88	63.1	0	0	---	0.00	30.022 
02:25	66.8	66.8	66.8	88	63.1	0	0	---	0.00	30.022 
02:30	66.6	66.6	66.6	88	62.9	0	0	---	0.00	30.018 
02:35	66.6	66.6	66.6	88	62.9	0	0	---	0.00	30.018 
02:40	66.6	66.6	66.6	88	62.9	0	0	---	0.00	30.018 
02:45	66.6	66.6	66.6	88	62.9	0	0	---	0.00	30.018 
02:50	66.4	66.4	66.4	88	62.7	0	0	---	0.00	30.018 
02:55	66.4	66.4	66.4	88	62.7	0	0	---	0.00	30.018 
03:00	66.4	66.4	66.4	88	62.7	0	0	---	0.00	30.027 
03:05	66.4	66.4	66.4	88	62.7	0	0	---	0.00	30.027 
03:10	66.4	66.4	66.4	88	62.7	0	0	---	0.00	30.027 
03:15	66.4	66.4	66.4	88	62.7	0	0	---	0.00	30.027 
03:20	66.4	66.4	66.4	88	62.7	0	0	---	0.00	30.027 
03:25	66.4	66.4	66.4	88	62.7	0	0	---	0.00	30.027 
03:30	66.3	66.3	66.3	88	62.6	0	0	---	0.00	30.028 
03:35	66.3	66.3	66.3	88	62.6	0	0	---	0.00	30.028 
03:40	66.3	66.3	66.3	88	62.6	0	0	---	0.00	30.028 
03:45	66.1	66.1	66.1	89	62.8	0	0	---	0.00	30.027 
03:50	66.1	66.1	66.1	89	62.8	0	0	---	0.00	30.027 
03:55	66.1	66.1	66.1	89	62.8	0	0	---	0.00	30.027 
04:00	66.0	66.0	66.0	89	62.7	0	0	---	0.00	30.025 
04:05	66.0	66.0	66.0	89	62.7	0	0	---	0.00	30.025 
04:10	65.8	65.8	65.8	90	62.8	0	0	---	0.00	30.025 
04:15	65.8	65.8	65.8	90	62.8	0	0	---	0.00	30.024 
04:20	65.6	65.6	65.6	90	62.6	0	0	---	0.00	30.024 
04:25	65.6	65.6	65.6	90	62.6	0	0	---	0.00	30.024 
04:30	65.6	65.6	65.6	90	62.6	0	0	---	0.00	30.023 
04:35	65.6	65.6	65.6	90	62.6	0	0	---	0.00	30.023 
04:40	65.6	65.6	65.6	91	62.9	0	0	---	0.00	30.023 
04:45	65.6	65.6	65.6	91	62.9	0	0	---	0.00	30.022 
04:50	65.6	65.6	65.6	91	62.9	0	0	---	0.00	30.022 
04:55	65.5	65.5	65.5	91	62.8	0	0	---	0.00	30.022 
05:00	65.3	65.3	65.3	91	62.6	0	0	---	0.00	30.022 
05:05	65.3	65.3	65.3	91	62.6	0	0	---	0.00	30.022 
05:10	65.2	65.2	65.2	91	62.5	0	0	---	0.00	30.022 
05:15	65.2	65.2	65.2	91	62.5	0	0	---	0.00	30.029 
05:20	65.0	65.0	65.0	91	62.3	0	0	---	0.00	30.029 
05:25	64.8	64.8	64.8	91	62.1	0	0	---	0.00	30.029 
05:30	64.8	64.8	64.8	92	62.4	0	0	---	0.00	30.033 
05:35	64.7	64.7	64.7	92	62.3	0	0	---	0.00	30.033 
05:40	64.7	64.7	64.7	92	62.3	0	0	---	0.00	30.033 
05:45	64.5	64.5	64.5	92	62.1	0	0	---	0.00	30.032 
05:50	64.5	64.5	64.5	92	62.1	0	0	---	0.00	30.032 
05:55	64.5	64.5	64.5	92	62.1	0	0	---	0.00	30.032 
06:00	64.5	64.5	64.5	92	62.1	0	0	---	0.00	30.035 
06:05	64.5	64.5	64.5	92	62.1	0	0	---	0.00	30.035 
06:10	64.5	64.5	64.5	92	62.1	0	0	---	0.00	30.035 
06:15	64.5	64.5	64.5	92	62.1	0	0	---	0.00	30.034 
06:20	64.7	64.7	64.7	93	62.6	0	0	---	0.00	30.034 
06:25	64.7	64.7	64.7	93	62.6	0	0	---	0.00	30.034 
06:30	64.7	64.7	64.7	93	62.6	0	0	---	0.00	30.037 
06:35	64.8	64.8	64.8	93	62.7	0	0	---	0.00	30.037 
06:40	64.8	64.8	64.8	93	62.7	0	0	---	0.00	30.037 
06:45	64.8	64.8	64.8	93	62.7	0	0	---	0.00	30.044 
06:50	64.8	64.8	64.8	93	62.7	0	0	---	0.00	30.044 
06:55	64.8	64.8	64.8	93	62.7	0	0	---	0.00	30.044 
07:00	64.8	64.8	64.8	93	62.7	0	0	---	0.00	30.047 
07:05	64.8	64.8	64.8	93	62.7	0	0	---	0.00	30.047 
07:10	64.8	64.8	64.8	93	62.7	0	0	---	0.00	30.047 
07:15	65.0	65.0	65.0	93	62.9	0	0	---	0.00	30.048 
07:20	65.0	65.0	65.0	93	62.9	0	0	---	0.00	30.048 
07:25	65.0	65.0	65.0	93	62.9	0	0	---	0.00	30.048 
07:30	65.2	65.2	65.2	93	63.1	0	0	---	0.00	30.052 
07:35	65.2	65.2	65.2	93	63.1	0	0	---	0.00	30.052 
07:40	65.3	65.3	65.3	93	63.2	0	0	---	0.00	30.052 
07:45	65.5	65.5	65.5	94	63.7	0	1	338	0.00	30.054 
07:50	65.6	65.6	65.6	94	63.8	0	1	338	0.00	30.054 
07:55	65.6	65.6	65.6	94	63.8	0	1	338	0.00	30.054 
08:00	65.8	65.8	65.8	93	63.7	0	0	---	0.00	30.058 
08:05	66.0	66.0	66.0	93	63.9	0	1	338	0.00	30.058 
08:10	66.1	66.1	66.1	93	64.0	0	0	---	0.00	30.058 
08:15	66.1	66.1	66.1	93	64.0	0	1	338	0.00	30.063 
08:20	66.4	66.4	66.4	93	64.3	0	1	338	0.00	30.063 
08:25	66.6	66.6	66.6	93	64.5	0	1	338	0.00	30.063 
08:30	66.9	66.9	66.9	92	64.5	0	2	338	0.00	30.060 
08:35	66.9	66.9	66.9	91	64.2	0	2	338	0.00	30.060 
08:40	67.1	67.1	67.1	91	64.4	0	2	338	0.00	30.060 
08:45	67.3	67.3	67.3	90	64.3	0	1	338	0.00	30.056 
08:50	67.4	67.4	67.4	90	64.4	0	1	338	0.00	30.056 
08:55	67.9	67.9	67.9	89	64.5	0	1	338	0.00	30.056 
09:00	68.6	68.6	68.6	88	64.9	0	1	338	0.00	30.057 
09:05	69.3	69.3	69.3	87	65.3	0	1	338	0.00	30.057 
09:10	69.8	69.8	69.8	85	65.1	0	1	338	0.00	30.057 
09:15	70.4	70.4	70.4	83	65.0	0	1	338	0.00	30.060 
09:20	70.9	70.9	70.9	82	65.1	0	2	338	0.00	30.060 
09:25	71.3	71.3	71.3	81	65.2	0	1	338	0.00	30.060 
09:30	71.5	71.5	71.5	79	64.6	0	1	338	0.00	30.060 
09:35	71.8	71.8	71.8	79	64.9	0	2	338	0.00	30.060 
09:40	72.3	72.3	72.3	78	65.0	0	1	338	0.00	30.060 
09:45	72.5	72.5	72.5	78	65.2	0	2	338	0.00	30.058 
09:50	72.8	72.8	72.8	77	65.2	0	1	338	0.00	30.058 
09:55	73.3	73.3	73.3	74	64.5	1	3	338	0.00	30.058 
10:00	73.9	73.9	73.9	74	65.1	1	3	0	0.00	30.056 
10:05	74.4	74.4	74.4	74	65.6	0	1	0	0.00	30.056 
10:10	75.1	75.1	76.6	72	65.4	0	2	0	0.00	30.056 
10:15	75.4	75.4	77.0	71	65.3	0	2	0	0.00	30.058 
10:20	75.6	75.6	77.0	73	66.3	1	3	0	0.00	30.058 
10:25	75.8	75.8	77.3	72	66.1	0	1	0	0.00	30.058 
10:30	75.6	75.6	77.1	72	65.9	0	1	0	0.00	30.059 
10:35	75.6	75.6	77.0	73	66.3	0	2	0	0.00	30.059 
10:40	75.6	75.6	77.0	73	66.3	0	2	0	0.00	30.059 
10:45	75.8	75.8	77.3	72	66.1	0	1	0	0.00	30.059 
10:50	75.4	75.4	76.9	72	65.7	1	4	90	0.00	30.059 
10:55	75.4	75.4	76.9	72	65.7	0	2	90	0.00	30.059 
11:00	75.8	75.8	77.3	73	66.5	0	2	90	0.00	30.062 
11:05	76.0	76.0	77.5	73	66.7	0	2	90	0.00	30.062 
11:10	76.7	76.7	78.3	73	67.4	0	4	90	0.00	30.062 
11:15	77.6	77.6	79.5	70	67.0	0	1	90	0.00	30.068 
11:20	78.1	78.1	80.1	69	67.1	2	4	90	0.00	30.068 
11:25	78.3	78.3	80.4	70	67.7	1	3	90	0.00	30.068 
11:30	78.6	78.6	80.8	69	67.6	1	3	90	0.00	30.064 
11:35	79.2	79.2	81.5	67	67.3	1	3	90	0.00	30.064 
11:40	79.4	79.4	81.8	68	67.9	0	3	90	0.00	30.064 
11:45	79.4	79.4	81.7	67	67.5	0	2	315	0.00	30.066 
11:50	78.6	78.6	80.7	68	67.1	1	3	45	0.00	30.066 
11:55	77.6	77.6	79.5	69	66.6	0	1	45	0.00	30.066 
12:00	76.8	76.8	78.5	70	66.3	0	1	45	0.00	30.072 
12:05	77.0	77.0	78.7	73	67.7	0	2	45	0.00	30.072 
12:10	77.6	77.6	79.5	69	66.6	2	3	45	0.00	30.072 
12:15	78.5	78.5	80.7	70	67.9	0	2	45	0.00	30.071 
12:20	78.8	78.8	81.0	68	67.3	1	2	45	0.00	30.071 
12:25	78.8	78.8	81.0	68	67.3	0	1	45	0.00	30.071 
12:30	78.6	78.6	80.8	69	67.6	0	1	45	0.00	30.070 
12:35	78.5	78.5	80.6	68	67.0	0	1	45	0.00	30.070 
12:40	79.2	79.2	81.5	68	67.7	1	2	45	0.00	30.070 
12:45	79.9	79.9	82.2	65	67.1	1	3	315	0.00	30.064 
12:50	80.7	80.7	83.5	66	68.3	1	4	292	0.00	30.064 
12:55	80.1	80.1	82.4	64	66.8	1	3	292	0.00	30.064 
13:00	79.0	79.0	81.1	66	66.6	1	2	292	0.00	30.062 
13:05	78.5	78.5	80.5	67	66.6	1	3	292	0.00	30.062 
13:10	78.5	78.5	80.5	67	66.6	0	2	292	0.00	30.062 
13:15	78.6	78.6	80.7	67	66.7	1	3	292	0.00	30.059 
13:20	78.8	78.8	80.9	66	66.5	1	4	292	0.00	30.059 
13:25	78.6	78.6	80.6	66	66.3	2	4	292	0.00	30.059 
13:30	78.8	78.8	80.9	67	66.9	1	4	292	0.00	30.058 
13:35	79.0	79.0	81.0	64	65.8	1	4	292	0.00	30.058 
13:40	78.8	78.8	80.9	67	66.9	1	3	315	0.00	30.058 
13:45	79.4	79.4	81.7	67	67.5	0	2	315	0.00	30.056 
13:50	80.1	80.1	82.3	63	66.3	0	3	315	0.00	30.056 
13:55	80.5	80.5	82.7	62	66.3	0	2	315	0.00	30.056 
14:00	80.3	80.3	82.3	61	65.6	1	3	315	0.00	30.050 
14:05	79.9	79.9	81.9	62	65.7	0	2	315	0.00	30.050 
14:10	79.8	79.8	82.0	64	66.5	0	3	315	0.00	30.050 
14:15	79.8	79.8	82.3	67	67.8	0	3	315	0.00	30.051 
14:20	79.9	79.9	82.6	68	68.4	1	3	90	0.00	30.051 
14:25	79.9	79.9	82.5	67	67.9	0	2	22	0.00	30.051 
14:30	79.8	79.8	82.4	68	68.3	1	3	45	0.00	30.047 
14:35	80.1	80.1	82.9	68	68.6	1	3	45	0.00	30.047 
14:40	80.1	80.1	82.5	65	67.2	0	2	112	0.00	30.047 
14:45	79.9	79.9	82.0	63	66.2	1	3	112	0.00	30.044 
14:50	79.8	79.8	82.1	65	67.0	0	2	112	0.00	30.044 
14:55	79.0	79.0	81.1	66	66.6	1	3	112	0.00	30.044 
15:00	78.5	78.5	80.5	67	66.6	1	2	112	0.00	30.047 
15:05	78.3	78.3	80.3	68	66.8	0	2	112	0.00	30.047 
15:10	79.0	79.0	81.3	68	67.5	0	3	112	0.00	30.047 
15:15	79.9	79.9	82.6	68	68.4	1	4	112	0.00	30.044 
15:20	80.7	80.7	83.4	65	67.8	1	3	112	0.00	30.044 
15:25	81.1	81.1	83.3	61	66.4	2	7	90	0.00	30.044 
15:30	80.5	80.5	82.8	63	66.7	0	2	90	0.00	30.044 
15:35	79.9	79.9	82.1	64	66.6	0	1	90	0.00	30.044 
15:40	79.6	79.6	81.8	65	66.8	0	3	90	0.00	30.044 
15:45	79.4	79.4	81.6	65	66.6	0	2	90	0.00	30.044 
15:50	79.0	79.0	81.0	65	66.2	0	2	90	0.00	30.044 
15:55	79.0	79.0	81.1	66	66.6	0	2	90	0.00	30.044 
16:00	78.8	78.8	80.9	67	66.9	0	1	90	0.00	30.045 
16:05	78.6	78.6	80.8	70	68.0	1	3	90	0.00	30.045 
16:10	78.3	78.3	80.5	71	68.1	2	5	90	0.00	30.045 
16:15	77.7	77.7	79.6	70	67.1	2	6	90	0.00	30.041 
16:20	77.4	77.4	79.3	71	67.2	1	4	68	0.00	30.041 
16:25	77.4	77.4	79.3	72	67.6	0	3	68	0.00	30.041 
16:30	77.4	77.4	79.3	71	67.2	0	1	68	0.00	30.045 
16:35	77.6	77.6	79.5	72	67.8	1	4	68	0.00	30.045 
16:40	77.7	77.7	79.7	72	67.9	1	3	68	0.00	30.045 
16:45	77.7	77.7	79.7	71	67.5	1	4	68	0.00	30.042 
16:50	77.9	77.9	79.9	71	67.7	2	5	90	0.00	30.042 
16:55	77.9	77.9	79.9	70	67.3	2	4	90	0.00	30.042 
17:00	77.9	77.9	79.9	70	67.3	1	3	90	0.00	30.034 
17:05	77.9	77.9	79.9	69	66.9	1	3	90	0.00	30.034 
17:10	78.3	78.3	80.4	69	67.3	2	5	90	0.00	30.034 
17:15	78.8	78.8	80.9	67	66.9	1	5	112	0.00	30.032 
17:20	78.8	78.8	80.9	67	66.9	1	4	112	0.00	30.032 
17:25	78.5	78.5	80.5	67	66.6	1	2	112	0.00	30.032 
17:30	78.1	78.1	80.1	68	66.7	1	3	112	0.00	30.034 
17:35	78.3	78.3	80.4	69	67.3	1	4	112	0.00	30.034 
17:40	78.3	78.3	80.4	69	67.3	2	4	112	0.00	30.034 
17:45	78.5	78.5	80.8	71	68.3	1	2	112	0.00	30.030 
17:50	78.8	78.8	81.2	71	68.6	0	2	112	0.00	30.030 
17:55	79.2	79.2	81.6	69	68.1	1	2	112	0.00	30.030 
18:00	79.2	79.2	81.5	67	67.3	1	3	112	0.00	30.030 
18:05	79.0	79.0	81.3	68	67.5	1	2	112	0.00	30.030 
18:10	78.8	78.8	81.1	70	68.2	1	3	112	0.00	30.030 
18:15	78.3	78.3	80.4	70	67.7	1	3	112	0.00	30.029 
18:20	78.1	78.1	80.2	72	68.3	0	3	112	0.00	30.029 
18:25	77.9	77.9	79.9	72	68.1	1	2	112	0.00	30.029 
18:30	77.7	77.7	79.7	71	67.5	0	2	112	0.00	30.031 
18:35	77.7	77.7	79.7	73	68.3	1	3	112	0.00	30.031 
18:40	77.6	77.6	79.5	73	68.2	1	4	112	0.00	30.031 
18:45	77.4	77.4	79.3	73	68.0	1	3	90	0.00	30.030 
18:50	77.2	77.2	79.0	72	67.5	2	4	90	0.00	30.030 
18:55	76.8	76.8	78.5	73	67.5	2	4	90	0.00	30.030 
19:00	76.7	76.7	78.3	73	67.4	2	4	90	0.00	30.030 
19:05	76.5	76.5	78.1	74	67.6	0	3	90	0.00	30.030 
19:10	76.3	76.3	77.9	72	66.6	2	5	90	0.00	30.030 
19:15	76.3	76.3	77.8	74	67.4	1	3	90	0.00	30.034 
19:20	76.1	76.1	77.6	73	66.8	1	4	90	0.00	30.034 
19:25	76.0	76.0	77.5	73	66.7	2	5	90	0.00	30.034 
19:30	75.6	75.6	77.0	74	66.7	2	5	90	0.00	30.038 
19:35	75.4	75.4	76.7	74	66.5	1	4	90	0.00	30.038 
19:40	75.4	75.4	76.6	75	66.9	1	3	90	0.00	30.038 
19:45	75.3	75.3	76.4	76	67.2	0	2	112	0.00	30.039 
19:50	75.1	75.1	76.1	77	67.4	0	1	112	0.00	30.039 
19:55	75.1	75.1	76.1	77	67.4	0	2	112	0.00	30.039 
20:00	74.9	74.9	74.9	76	66.8	1	5	112	0.00	30.046 
20:05	74.9	74.9	74.9	77	67.2	1	3	112	0.00	30.046 
20:10	74.7	74.7	74.7	77	67.0	1	4	112	0.00	30.046 
20:15	74.6	74.6	74.6	77	66.9	2	4	112	0.00	30.041 
20:20	74.2	74.2	74.2	78	66.9	1	3	68	0.00	30.041 
20:25	73.9	73.9	73.9	79	67.0	1	3	68	0.00	30.041 
20:30	73.5	73.5	73.5	79	66.6	1	5	68	0.00	30.046 
20:35	73.2	73.2	73.2	80	66.6	1	5	68	0.00	30.046 
20:40	72.8	72.8	72.8	80	66.3	1	3	90	0.00	30.046 
20:45	72.7	72.7	72.7	80	66.2	1	4	90	0.00	30.047 
20:50	72.3	72.3	72.3	80	65.8	1	3	68	0.00	30.047 
20:55	72.1	72.1	72.1	81	65.9	0	3	68	0.00	30.047 
21:00	72.0	72.0	72.0	81	65.8	1	3	68	0.00	30.050 
21:05	71.8	71.8	71.8	81	65.6	0	3	68	0.00	30.050 
21:10	71.6	71.6	71.6	81	65.4	1	3	68	0.00	30.050 
21:15	71.5	71.5	71.5	82	65.7	0	2	68	0.00	30.057 
21:20	71.3	71.3	71.3	82	65.5	0	1	68	0.00	30.057 
21:25	71.1	71.1	71.1	82	65.3	0	2	68	0.00	30.057 
21:30	70.9	70.9	70.9	82	65.1	1	3	68	0.00	30.061 
21:35	70.8	70.8	70.8	83	65.4	0	1	68	0.00	30.061 
21:40	70.6	70.6	70.6	83	65.2	0	2	68	0.00	30.061 
21:45	70.4	70.4	70.4	83	65.0	1	2	68	0.00	30.068 
21:50	70.3	70.3	70.3	83	64.9	1	2	68	0.00	30.068 
21:55	70.1	70.1	70.1	83	64.7	1	2	68	0.00	30.068 
22:00	69.9	69.9	69.9	84	64.8	0	2	68	0.00	30.075 
22:05	69.8	69.8	69.8	84	64.7	0	2	68	0.00	30.075 
22:10	69.6	69.6	69.6	84	64.5	0	2	68	0.00	30.075 
22:15	69.4	69.4	69.4	84	64.3	0	2	68	0.00	30.078 
22:20	69.3	69.3	69.3	84	64.2	0	1	68	0.00	30.078 
22:25	69.1	69.1	69.1	84	64.1	0	2	68	0.00	30.078 
22:30	68.9	68.9	68.9	84	63.9	0	2	68	0.00	30.079 
22:35	68.6	68.6	68.6	84	63.6	0	2	68	0.00	30.079 
22:40	68.4	68.4	68.4	85	63.7	0	1	68	0.00	30.079 
22:45	68.3	68.3	68.3	85	63.6	0	0	---	0.00	30.085 
22:50	68.1	68.1	68.1	85	63.4	0	1	68	0.00	30.085 
22:55	68.1	68.1	68.1	85	63.4	0	0	---	0.00	30.085 
23:00	67.9	67.9	67.9	85	63.2	0	1	68	0.00	30.086 
23:05	67.8	67.8	67.8	86	63.5	0	0	---	0.00	30.086 
23:10	67.6	67.6	67.6	86	63.3	0	0	---	0.00	30.086 
23:15	67.4	67.4	67.4	86	63.1	0	0	---	0.00	30.084 
23:20	67.3	67.3	67.3	87	63.3	0	2	68	0.00	30.084 
23:25	67.3	67.3	67.3	87	63.3	0	3	68	0.00	30.084 
23:30	67.1	67.1	67.1	87	63.1	0	1	68	0.00	30.080 
23:35	66.9	66.9	66.9	87	62.9	0	0	---	0.00	30.080 
23:40	66.8	66.8	66.8	87	62.8	0	1	68	0.00	30.080 
23:45	66.6	66.6	66.6	87	62.6	0	0	---	0.00	30.078 
23:50	66.4	66.4	66.4	88	62.7	0	0	---	0.00	30.078 
23:55	66.3	66.3	66.3	88	62.6	0	1	68	0.00	30.078 

CoCoRaHS
IN-AL-39
A2 Web Hosting
Creative Commons License
GoDaddy
search engine by freefind advanced

loaded 2018-11-17 06:13:59 • last modified 2010-11-18 10:43:29
Privacy PolicyDisclaimer
• wx.awcolley.com is powered by PmWiki v.2002016 •
• all content (unless otherwise noted) © 2018 A W Colley